createdAt,value
2019-04-25T00:02:04.781Z,102709.73
2019-04-25T00:04:31.526Z,102716.38
2019-04-25T00:06:57.502Z,102716.44
2019-04-25T00:09:25.261Z,102713.38
2019-04-25T00:11:52.292Z,102713.44
2019-04-25T00:14:18.914Z,102716.61
2019-04-25T00:16:45.415Z,102713.11
2019-04-25T00:19:11.730Z,102713.59
2019-04-25T00:21:40.410Z,102718.53
2019-04-25T00:24:09.217Z,102711.06
2019-04-25T00:26:37.304Z,102707.59
2019-04-25T00:29:03.994Z,102709.85
2019-04-25T00:31:30.049Z,102714.30
2019-04-25T00:33:55.919Z,102713.00
2019-04-25T00:36:21.898Z,102708.23
2019-04-25T00:38:48.305Z,102715.70
2019-04-25T00:41:14.847Z,102717.51
2019-04-25T00:43:42.177Z,102722.84
2019-04-25T00:46:08.412Z,102717.09
2019-04-25T00:48:34.675Z,102716.69
2019-04-25T00:51:01.881Z,102707.95
2019-04-25T00:53:27.904Z,102719.44
2019-04-25T00:55:53.905Z,102724.77
2019-04-25T00:58:33.446Z,102728.78
2019-04-25T01:01:01.986Z,102727.91
2019-04-25T01:03:31.631Z,102735.89
2019-04-25T01:05:57.585Z,102729.31
2019-04-25T01:08:23.743Z,102732.43
2019-04-25T01:10:50.527Z,102731.16
2019-04-25T01:13:17.558Z,102734.73
2019-04-25T01:15:44.816Z,102737.41
2019-04-25T01:18:12.274Z,102736.09
2019-04-25T01:20:38.174Z,102733.45
2019-04-25T01:23:04.039Z,102735.22
2019-04-25T01:25:40.281Z,102734.81
2019-04-25T01:27:57.818Z,102734.80
2019-04-25T01:30:25.679Z,102733.92
2019-04-25T01:32:52.940Z,102725.56
2019-04-25T01:35:27.310Z,102738.77
2019-04-25T01:37:57.984Z,102749.36
2019-04-25T01:40:28.448Z,102749.84
2019-04-25T01:43:03.629Z,102742.36
2019-04-25T01:45:31.403Z,102739.73
2019-04-25T01:47:58.430Z,102739.33
2019-04-25T01:50:24.514Z,102743.75
2019-04-25T01:52:50.523Z,102736.72
2019-04-25T01:55:16.533Z,102736.28
2019-04-25T01:57:45.020Z,102735.42
2019-04-25T02:00:13.982Z,102733.23
2019-04-25T02:02:40.152Z,102737.64
2019-04-25T02:05:07.126Z,102737.65
2019-04-25T02:07:33.404Z,102744.28
2019-04-25T02:09:59.444Z,102741.22
2019-04-25T02:12:36.300Z,102745.20
2019-04-25T02:15:05.901Z,102740.37
2019-04-25T02:17:30.126Z,102741.70
2019-04-25T02:19:56.741Z,102747.00
2019-04-25T02:22:24.324Z,102749.66
2019-04-25T02:24:50.575Z,102746.13
2019-04-25T02:27:16.469Z,102742.63
2019-04-25T02:29:43.361Z,102746.56
2019-04-25T02:32:10.122Z,102753.64
2019-04-25T02:34:36.090Z,102760.69
2019-04-25T02:37:07.142Z,102748.39
2019-04-25T02:39:29.795Z,102747.50
2019-04-25T02:41:57.859Z,102742.66
2019-04-25T02:44:24.752Z,102738.27
2019-04-25T02:47:07.892Z,102740.91
2019-04-25T02:49:48.876Z,102744.88
2019-04-25T02:52:25.874Z,102739.17
2019-04-25T02:54:51.751Z,102740.50
2019-04-25T02:57:17.728Z,102738.30
2019-04-25T02:59:45.071Z,102734.34
2019-04-25T03:02:11.203Z,102731.70
2019-04-25T03:04:37.421Z,102737.41
2019-04-25T03:07:07.413Z,102730.81
2019-04-25T03:09:31.197Z,102735.22
2019-04-25T03:11:58.407Z,102735.22
2019-04-25T03:14:26.768Z,102735.23
2019-04-25T03:16:54.336Z,102738.77
2019-04-25T03:19:28.168Z,102733.92
2019-04-25T03:21:56.258Z,102735.70
2019-04-25T03:24:24.969Z,102737.45
2019-04-25T03:26:50.047Z,102740.52
2019-04-25T03:29:16.017Z,102740.10
2019-04-25T03:31:44.729Z,102737.47
2019-04-25T03:34:14.056Z,102743.17
2019-04-25T03:36:37.344Z,102741.42
2019-04-25T03:39:05.297Z,102741.42
2019-04-25T03:41:31.215Z,102740.53
2019-04-25T03:43:57.069Z,102740.53
2019-04-25T03:46:23.332Z,102743.16
2019-04-25T03:48:49.336Z,102740.98
2019-04-25T03:51:15.658Z,102729.96
2019-04-25T03:53:41.948Z,102730.42
2019-04-25T03:56:08.633Z,102730.42
2019-04-25T03:58:34.701Z,102735.23
2019-04-25T04:01:00.675Z,102732.59
2019-04-25T04:03:26.573Z,102737.02
2019-04-25T04:05:54.024Z,102729.95
2019-04-25T04:08:20.288Z,102731.27
2019-04-25T04:10:46.226Z,102734.37
2019-04-25T04:13:12.338Z,102727.30
2019-04-25T04:15:38.206Z,102729.08
2019-04-25T04:18:18.078Z,102733.46
2019-04-25T04:21:03.200Z,102726.86
2019-04-25T04:23:31.087Z,102731.25
2019-04-25T04:25:57.048Z,102733.88
2019-04-25T04:28:23.637Z,102725.10
2019-04-25T04:30:49.597Z,102730.38
2019-04-25T04:33:25.769Z,102730.80
2019-04-25T04:35:44.159Z,102730.37
2019-04-25T04:38:10.209Z,102727.72
2019-04-25T04:40:37.220Z,102730.78
2019-04-25T04:43:04.439Z,102724.64
2019-04-25T04:45:30.372Z,102721.09
2019-04-25T04:47:56.348Z,102724.61
2019-04-25T04:50:23.287Z,102720.17
2019-04-25T04:52:50.130Z,102720.17
2019-04-25T04:55:18.320Z,102723.25
2019-04-25T04:57:44.873Z,102730.27
2019-04-25T05:00:12.224Z,102725.86
2019-04-25T05:02:43.493Z,102722.30
2019-04-25T05:05:12.034Z,102723.16
2019-04-25T05:07:53.935Z,102720.48
2019-04-25T05:10:20.139Z,102721.78
2019-04-25T05:12:46.089Z,102716.45
2019-04-25T05:15:14.842Z,102714.66
2019-04-25T05:17:39.813Z,102719.02
2019-04-25T05:20:05.831Z,102715.01
2019-04-25T05:22:33.270Z,102714.97
2019-04-25T05:24:59.201Z,102716.70
2019-04-25T05:27:37.118Z,102713.16
2019-04-25T05:29:53.982Z,102717.06
2019-04-25T05:32:20.022Z,102721.45
2019-04-25T05:34:46.191Z,102722.70
2019-04-25T05:37:14.335Z,102725.73
2019-04-25T05:39:40.878Z,102727.89
2019-04-25T05:42:20.352Z,102716.34
2019-04-25T05:44:46.307Z,102719.38
2019-04-25T05:47:12.295Z,102717.97
2019-04-25T05:49:38.192Z,102723.62
2019-04-25T05:52:05.659Z,102723.98
2019-04-25T05:54:31.541Z,102724.73
2019-04-25T05:56:57.697Z,102721.11
2019-04-25T05:59:25.546Z,102719.23
2019-04-25T06:01:51.665Z,102723.94
2019-04-25T06:04:17.981Z,102711.02
2019-04-25T06:06:44.599Z,102712.64
2019-04-25T06:09:15.063Z,102717.80
2019-04-25T06:11:48.875Z,102719.41
2019-04-25T06:14:18.281Z,102710.39
2019-04-25T06:16:44.198Z,102708.89
2019-04-25T06:19:16.374Z,102697.25
2019-04-25T06:21:39.883Z,102700.09
2019-04-25T06:24:25.797Z,102703.00
2019-04-25T06:27:12.055Z,102707.69
2019-04-25T06:29:38.052Z,102701.73
2019-04-25T06:32:08.306Z,102698.35
2019-04-25T06:34:34.191Z,102697.22
2019-04-25T06:37:02.255Z,102695.62
2019-04-25T06:39:27.948Z,102692.28
2019-04-25T06:41:54.201Z,102688.45
2019-04-25T06:44:28.486Z,102686.41
2019-04-25T06:47:03.401Z,102690.55
2019-04-25T06:49:31.452Z,102688.03
2019-04-25T06:51:57.737Z,102687.69
2019-04-25T06:54:25.441Z,102693.58
2019-04-25T06:56:51.347Z,102688.85
2019-04-25T06:59:17.414Z,102701.39
2019-04-25T07:01:43.992Z,102697.09
2019-04-25T07:04:09.886Z,102698.07
2019-04-25T07:06:35.760Z,102692.78
2019-04-25T07:09:03.076Z,102696.46
2019-04-25T07:11:29.029Z,102699.23
2019-04-25T07:13:54.955Z,102693.52
2019-04-25T07:16:20.829Z,102688.28
2019-04-25T07:18:46.866Z,102684.73
2019-04-25T07:21:14.230Z,102692.77
2019-04-25T07:23:40.405Z,102674.13
2019-04-25T07:26:08.312Z,102679.97
2019-04-25T07:28:53.829Z,102681.31
2019-04-25T07:31:27.657Z,102681.76
2019-04-25T07:33:58.307Z,102685.76
2019-04-25T07:36:25.646Z,102686.14
2019-04-25T07:39:04.973Z,102689.64
2019-04-25T07:41:19.795Z,102682.94
2019-04-25T07:43:45.725Z,102686.95
2019-04-25T07:46:13.364Z,102683.80
2019-04-25T07:48:39.366Z,102685.09
2019-04-25T07:51:05.343Z,102685.97
2019-04-25T07:53:31.577Z,102683.74
2019-04-25T07:55:57.475Z,102678.91
2019-04-25T07:58:38.240Z,102680.21
2019-04-25T08:00:53.943Z,102677.58
2019-04-25T08:03:20.016Z,102681.12
2019-04-25T08:05:45.892Z,102678.39
2019-04-25T08:08:13.480Z,102685.94
2019-04-25T08:10:41.437Z,102679.14
2019-04-25T08:13:07.299Z,102677.30
2019-04-25T08:15:40.717Z,102674.17
2019-04-25T08:18:08.383Z,102671.07
2019-04-25T08:20:34.799Z,102666.95
2019-04-25T08:23:04.104Z,102672.81
2019-04-25T08:25:30.747Z,102673.23
2019-04-25T08:27:56.972Z,102669.66
2019-04-25T08:30:24.017Z,102670.13
2019-04-25T08:32:49.987Z,102665.16
2019-04-25T08:35:16.126Z,102667.83
2019-04-25T08:37:43.935Z,102664.65
2019-04-25T08:40:10.169Z,102664.23
2019-04-25T08:42:36.787Z,102663.27
2019-04-25T08:45:04.673Z,102664.99
2019-04-25T08:47:31.358Z,102662.64
2019-04-25T08:50:26.787Z,102665.77
2019-04-25T08:52:44.321Z,102663.42
2019-04-25T08:55:28.916Z,102666.73
2019-04-25T08:57:59.589Z,102660.75
2019-04-25T09:00:35.712Z,102659.64
2019-04-25T09:03:03.867Z,102664.09
2019-04-25T09:05:37.194Z,102662.78
2019-04-25T09:08:04.181Z,102669.27
2019-04-25T09:10:30.026Z,102671.78
2019-04-25T09:12:56.014Z,102662.64
2019-04-25T09:15:21.978Z,102658.84
2019-04-25T09:17:47.950Z,102663.58
2019-04-25T09:20:14.105Z,102657.06
2019-04-25T09:22:39.975Z,102660.06
2019-04-25T09:25:06.193Z,102647.51
2019-04-25T09:27:34.343Z,102656.02
2019-04-25T09:29:59.880Z,102662.86
2019-04-25T09:32:25.736Z,102654.50
2019-04-25T09:34:52.626Z,102661.45
2019-04-25T09:37:19.451Z,102660.75
2019-04-25T09:39:53.796Z,102647.05
2019-04-25T09:42:20.836Z,102641.81
2019-04-25T09:45:03.748Z,102643.09
2019-04-25T09:47:29.732Z,102642.58
2019-04-25T09:49:56.270Z,102641.97
2019-04-25T09:52:24.348Z,102634.68
2019-04-25T09:55:03.998Z,102639.77
2019-04-25T09:57:33.387Z,102631.95
2019-04-25T09:59:59.777Z,102632.80
2019-04-25T10:02:26.057Z,102633.01
2019-04-25T10:04:52.027Z,102631.86
2019-04-25T10:07:17.863Z,102621.29
2019-04-25T10:09:44.735Z,102623.21
2019-04-25T10:12:11.049Z,102622.56
2019-04-25T10:14:55.239Z,102619.64
2019-04-25T10:17:21.199Z,102613.87
2019-04-25T10:19:47.993Z,102608.14
2019-04-25T10:22:14.024Z,102610.79
2019-04-25T10:24:40.026Z,102603.91
2019-04-25T10:27:06.099Z,102614.41
2019-04-25T10:29:41.299Z,102605.80
2019-04-25T10:31:59.919Z,102612.76
2019-04-25T10:34:25.989Z,102603.05
2019-04-25T10:36:53.154Z,102597.02
2019-04-25T10:39:19.236Z,102596.42
2019-04-25T10:41:46.691Z,102590.58
2019-04-25T10:44:14.154Z,102588.36
2019-04-25T10:46:40.220Z,102586.91
2019-04-25T10:49:06.443Z,102587.41
2019-04-25T10:51:34.137Z,102582.33
2019-04-25T10:54:00.058Z,102584.30
2019-04-25T10:56:25.925Z,102582.80
2019-04-25T10:58:51.793Z,102584.53
2019-04-25T11:01:17.844Z,102581.83
2019-04-25T11:03:48.457Z,102578.47
2019-04-25T11:06:16.637Z,102574.62
2019-04-25T11:08:42.614Z,102579.18
2019-04-25T11:11:09.280Z,102569.88
2019-04-25T11:13:35.545Z,102568.48
2019-04-25T11:16:01.424Z,102572.45
2019-04-25T11:18:27.419Z,102573.65
2019-04-25T11:20:54.985Z,102566.70
2019-04-25T11:23:21.067Z,102578.22
2019-04-25T11:25:47.294Z,102575.81
2019-04-25T11:28:14.432Z,102574.18
2019-04-25T11:30:43.574Z,102571.80
2019-04-25T11:33:09.413Z,102575.09
2019-04-25T11:35:35.384Z,102565.50
2019-04-25T11:38:03.543Z,102569.59
2019-04-25T11:40:37.420Z,102571.45
2019-04-25T11:43:04.302Z,102571.92
2019-04-25T11:45:30.285Z,102561.89
2019-04-25T11:47:56.281Z,102571.43
2019-04-25T11:50:22.468Z,102564.75
2019-04-25T11:52:48.468Z,102566.85
2019-04-25T11:55:14.951Z,102572.17
2019-04-25T11:57:41.027Z,102571.03
2019-04-25T12:00:08.041Z,102567.02
2019-04-25T12:02:34.361Z,102565.78
2019-04-25T12:05:00.374Z,102562.13
2019-04-25T12:07:26.537Z,102558.86
2019-04-25T12:09:54.118Z,102561.59
2019-04-25T12:12:20.166Z,102561.19
2019-04-25T12:14:46.395Z,102558.78
2019-04-25T12:17:12.696Z,102553.19
2019-04-25T12:19:38.720Z,102555.78
2019-04-25T12:22:04.773Z,102557.09
2019-04-25T12:24:30.728Z,102560.28
2019-04-25T12:26:56.637Z,102556.27
2019-04-25T12:29:24.305Z,102561.69
2019-04-25T12:31:50.373Z,102555.08
2019-04-25T12:34:16.328Z,102558.90
2019-04-25T12:36:42.287Z,102563.80
2019-04-25T12:39:09.782Z,102550.23
2019-04-25T12:41:35.740Z,102557.02
2019-04-25T12:44:19.777Z,102549.53
2019-04-25T12:46:50.606Z,102552.85
2019-04-25T12:49:16.461Z,102544.41
2019-04-25T12:51:42.351Z,102547.50
2019-04-25T12:54:08.394Z,102547.59
2019-04-25T12:56:34.233Z,102555.80
2019-04-25T12:59:00.496Z,102546.02
2019-04-25T13:01:26.485Z,102548.86
2019-04-25T13:03:54.030Z,102542.98
2019-04-25T13:06:20.181Z,102537.55
2019-04-25T13:08:46.212Z,102540.48
2019-04-25T13:11:13.969Z,102536.39
2019-04-25T13:13:39.976Z,102533.38
2019-04-25T13:16:06.701Z,102527.16
2019-04-25T13:18:32.664Z,102526.63
2019-04-25T13:20:58.643Z,102534.75
2019-04-25T13:23:24.567Z,102527.74
2019-04-25T13:25:50.450Z,102535.12
2019-04-25T13:28:20.868Z,102539.98
2019-04-25T13:31:10.551Z,102536.02
2019-04-25T13:33:34.879Z,102531.85
2019-04-25T13:36:02.733Z,102529.59
2019-04-25T13:38:28.708Z,102528.30
2019-04-25T13:40:54.688Z,102520.84
2019-04-25T13:43:20.560Z,102529.31
2019-04-25T13:45:46.575Z,102517.50
2019-04-25T13:48:13.231Z,102523.08
2019-04-25T13:50:39.124Z,102526.30
2019-04-25T13:53:05.020Z,102524.72
2019-04-25T13:55:30.999Z,102520.41
2019-04-25T13:57:56.987Z,102513.78
2019-04-25T14:00:24.862Z,102515.67
2019-04-25T14:02:51.562Z,102510.45
2019-04-25T14:05:17.875Z,102508.66
2019-04-25T14:07:43.760Z,102507.86
2019-04-25T14:10:09.837Z,102504.29
2019-04-25T14:12:35.729Z,102501.80
2019-04-25T14:15:01.722Z,102498.91
2019-04-25T14:17:41.564Z,102493.49
2019-04-25T14:20:15.443Z,102493.66
2019-04-25T14:22:43.124Z,102492.48
2019-04-25T14:25:10.282Z,102495.84
2019-04-25T14:27:36.193Z,102496.56
2019-04-25T14:30:03.864Z,102483.36
2019-04-25T14:32:30.169Z,102494.12
2019-04-25T14:34:56.193Z,102495.47
2019-04-25T14:37:26.354Z,102489.42
2019-04-25T14:39:49.962Z,102490.95
2019-04-25T14:42:15.969Z,102487.50
2019-04-25T14:44:41.867Z,102484.52
2019-04-25T14:47:07.929Z,102484.53
2019-04-25T14:49:33.926Z,102479.20
2019-04-25T14:51:59.921Z,102483.77
2019-04-25T14:54:28.479Z,102481.42
2019-04-25T14:57:11.301Z,102480.31
2019-04-25T14:59:37.161Z,102478.55
2019-04-25T15:02:03.322Z,102481.99
2019-04-25T15:04:30.115Z,102477.19
2019-04-25T15:06:56.108Z,102483.01
2019-04-25T15:09:22.379Z,102474.61
2019-04-25T15:11:49.647Z,102481.55
2019-04-25T15:14:15.500Z,102482.05
2019-04-25T15:16:41.500Z,102480.45
2019-04-25T15:19:07.606Z,102475.34
2019-04-25T15:21:33.984Z,102475.83
2019-04-25T15:24:00.615Z,102471.00
2019-04-25T15:26:26.866Z,102467.30
2019-04-25T15:28:53.007Z,102469.77
2019-04-25T15:31:18.961Z,102466.67
2019-04-25T15:33:45.093Z,102459.73
2019-04-25T15:36:18.743Z,102462.69
2019-04-25T15:39:03.007Z,102463.45
2019-04-25T15:41:33.791Z,102463.45
2019-04-25T15:44:16.697Z,102458.97
2019-04-25T15:46:44.510Z,102457.50
2019-04-25T15:49:10.485Z,102454.30
2019-04-25T15:51:36.472Z,102457.98
2019-04-25T15:54:02.774Z,102460.58
2019-04-25T15:56:28.855Z,102457.63
2019-04-25T15:58:54.725Z,102457.98
2019-04-25T16:01:21.211Z,102451.63
2019-04-25T16:03:47.087Z,102448.73
2019-04-25T16:06:12.990Z,102447.24
2019-04-25T16:08:38.958Z,102452.16
2019-04-25T16:11:05.272Z,102443.23
2019-04-25T16:13:32.288Z,102442.47
2019-04-25T16:15:58.176Z,102444.06
2019-04-25T16:18:24.059Z,102445.02
2019-04-25T16:20:52.911Z,102445.48
2019-04-25T16:23:19.067Z,102450.02
2019-04-25T16:25:45.135Z,102451.84
2019-04-25T16:28:11.325Z,102454.02
2019-04-25T16:30:37.380Z,102451.40
2019-04-25T16:33:04.543Z,102455.28
2019-04-25T16:35:31.006Z,102455.78
2019-04-25T16:37:57.057Z,102451.38
2019-04-25T16:40:23.604Z,102444.29
2019-04-25T16:42:49.596Z,102449.39
2019-04-25T16:45:15.579Z,102446.55
2019-04-25T16:47:41.932Z,102443.69
2019-04-25T16:50:08.283Z,102443.28
2019-04-25T16:52:34.474Z,102442.95
2019-04-25T16:55:00.795Z,102436.16
2019-04-25T16:57:26.732Z,102435.81
2019-04-25T16:59:53.615Z,102437.23
2019-04-25T17:02:32.233Z,102439.59
2019-04-25T17:04:48.170Z,102438.50
2019-04-25T17:07:14.980Z,102439.97
2019-04-25T17:09:40.988Z,102433.42
2019-04-25T17:12:08.474Z,102434.03
2019-04-25T17:14:37.442Z,102444.02
2019-04-25T17:17:05.445Z,102449.23
2019-04-25T17:19:36.750Z,102447.42
2019-04-25T17:22:03.835Z,102443.30
2019-04-25T17:24:30.075Z,102449.86
2019-04-25T17:26:57.013Z,102447.19
2019-04-25T17:29:23.005Z,102450.59
2019-04-25T17:32:05.611Z,102449.44
2019-04-25T17:34:39.267Z,102453.99
2019-04-25T17:37:14.773Z,102452.77
2019-04-25T17:39:42.692Z,102454.10
2019-04-25T17:42:08.830Z,102452.87
2019-04-25T17:44:34.653Z,102464.44
2019-04-25T17:47:06.338Z,102462.50
2019-04-25T17:49:28.509Z,102464.33
2019-04-25T17:51:54.409Z,102466.13
2019-04-25T17:54:20.386Z,102466.70
2019-04-25T17:56:46.346Z,102462.75
2019-04-25T17:59:12.201Z,102468.21
2019-04-25T18:01:38.232Z,102476.08
2019-04-25T18:04:04.763Z,102474.53
2019-04-25T18:06:30.627Z,102481.59
2019-04-25T18:08:56.524Z,102480.61
2019-04-25T18:11:23.586Z,102479.77
2019-04-25T18:13:51.110Z,102486.34
2019-04-25T18:16:24.326Z,102484.63
2019-04-25T18:18:52.028Z,102482.63
2019-04-25T18:21:19.458Z,102483.71
2019-04-25T18:23:52.689Z,102483.88
2019-04-25T18:26:20.639Z,102483.85
2019-04-25T18:28:50.234Z,102489.96
2019-04-25T18:31:18.861Z,102483.91
2019-04-25T18:33:48.677Z,102483.92
2019-04-25T18:36:25.455Z,102478.16
2019-04-25T18:39:02.278Z,102482.50
2019-04-25T18:41:30.107Z,102477.94
2019-04-25T18:44:06.651Z,102472.67
2019-04-25T18:46:34.835Z,102460.83
2019-04-25T18:49:01.226Z,102473.95
2019-04-25T18:51:27.198Z,102480.12
2019-04-25T18:54:05.585Z,102481.46
2019-04-25T18:56:37.616Z,102487.09
2019-04-25T18:59:08.881Z,102490.86
2019-04-25T19:01:53.157Z,102498.89
2019-04-25T19:04:20.928Z,102496.02
2019-04-25T19:06:56.341Z,102495.31
2019-04-25T19:09:16.202Z,102495.55
2019-04-25T19:11:42.896Z,102503.34
2019-04-25T19:14:09.465Z,102500.03
2019-04-25T19:16:35.580Z,102497.69
2019-04-25T19:19:01.591Z,102507.09
2019-04-25T19:21:27.568Z,102511.76
2019-04-25T19:23:54.120Z,102502.23
2019-04-25T19:26:20.440Z,102504.07
2019-04-25T19:28:48.827Z,102510.27
2019-04-25T19:31:15.859Z,102504.31
2019-04-25T19:33:42.013Z,102509.90
2019-04-25T19:36:07.973Z,102503.79
2019-04-25T19:38:36.752Z,102505.35
2019-04-25T19:41:04.900Z,102506.45
2019-04-25T19:43:42.203Z,102501.75
2019-04-25T19:46:08.219Z,102506.00
2019-04-25T19:48:38.805Z,102505.36
2019-04-25T19:51:04.908Z,102499.92
2019-04-25T19:53:31.051Z,102500.34
2019-04-25T19:55:57.669Z,102496.21
2019-04-25T19:58:23.850Z,102502.60
2019-04-25T20:00:50.972Z,102504.58
2019-04-25T20:03:21.987Z,102510.14
2019-04-25T20:05:58.867Z,102518.26
2019-04-25T20:08:32.779Z,102518.23
2019-04-25T20:11:02.526Z,102513.67
2019-04-25T20:13:28.497Z,102518.78
2019-04-25T20:15:54.538Z,102514.14
2019-04-25T20:18:20.949Z,102517.91
2019-04-25T20:20:48.213Z,102521.70
2019-04-25T20:23:14.016Z,102518.89
2019-04-25T20:25:40.645Z,102527.12
2019-04-25T20:28:06.637Z,102528.27
2019-04-25T20:30:32.615Z,102521.83
2019-04-25T20:32:58.831Z,102520.38
2019-04-25T20:35:25.002Z,102514.94
2019-04-25T20:37:51.216Z,102523.04
2019-04-25T20:40:17.258Z,102526.37
2019-04-25T20:42:54.192Z,102531.03
2019-04-25T20:45:11.579Z,102527.26
2019-04-25T20:47:37.662Z,102523.88
2019-04-25T20:50:04.474Z,102526.87
2019-04-25T20:52:30.352Z,102523.12
2019-04-25T20:54:56.996Z,102526.16
2019-04-25T20:57:22.951Z,102518.95
2019-04-25T20:59:49.947Z,102518.84
2019-04-25T21:02:16.263Z,102516.06
2019-04-25T21:04:42.925Z,102513.38
2019-04-25T21:07:09.000Z,102515.11
2019-04-25T21:09:35.003Z,102522.53
2019-04-25T21:12:00.981Z,102525.49
2019-04-25T21:14:29.132Z,102531.06
2019-04-25T21:16:59.787Z,102532.67
2019-04-25T21:19:27.772Z,102528.43
2019-04-25T21:21:54.231Z,102531.37
2019-04-25T21:24:20.304Z,102529.88
2019-04-25T21:26:46.634Z,102531.53
2019-04-25T21:29:12.589Z,102533.13
2019-04-25T21:31:38.648Z,102535.18
2019-04-25T21:34:04.910Z,102542.47
2019-04-25T21:36:31.206Z,102538.18
2019-04-25T21:38:57.544Z,102531.36
2019-04-25T21:41:44.036Z,102529.84
2019-04-25T21:44:12.059Z,102531.03
2019-04-25T21:46:38.088Z,102525.55
2019-04-25T21:49:04.402Z,102526.68
2019-04-25T21:51:30.357Z,102523.33
2019-04-25T21:53:57.298Z,102532.41
2019-04-25T21:56:23.656Z,102528.95
2019-04-25T21:58:49.547Z,102535.27
2019-04-25T22:01:16.452Z,102523.35
2019-04-25T22:03:42.423Z,102519.11
2019-04-25T22:06:08.694Z,102517.11
2019-04-25T22:08:34.667Z,102517.74
2019-04-25T22:11:01.234Z,102524.14
2019-04-25T22:13:27.623Z,102526.96
2019-04-25T22:15:53.934Z,102521.72
2019-04-25T22:18:21.129Z,102522.29
2019-04-25T22:20:48.005Z,102515.81
2019-04-25T22:23:14.288Z,102521.27
2019-04-25T22:25:40.615Z,102521.41
2019-04-25T22:28:07.218Z,102525.53
2019-04-25T22:30:33.420Z,102518.48
2019-04-25T22:33:03.514Z,102513.23
2019-04-25T22:35:31.460Z,102515.06
2019-04-25T22:38:00.018Z,102509.41
2019-04-25T22:40:25.935Z,102510.83
2019-04-25T22:42:51.912Z,102512.70
2019-04-25T22:45:17.945Z,102507.01
2019-04-25T22:47:43.819Z,102512.38
2019-04-25T22:50:10.647Z,102503.19
2019-04-25T22:52:36.842Z,102504.61
2019-04-25T22:55:04.288Z,102504.33
2019-04-25T22:57:30.426Z,102499.09
2019-04-25T22:59:56.348Z,102497.53
2019-04-25T23:02:24.149Z,102494.09
2019-04-25T23:05:04.367Z,102498.22
2019-04-25T23:07:19.953Z,102504.11
2019-04-25T23:09:46.532Z,102511.25
2019-04-25T23:12:12.738Z,102500.64
2019-04-25T23:14:39.060Z,102507.38
2019-04-25T23:17:05.167Z,102505.77
2019-04-25T23:19:31.248Z,102501.56
2019-04-25T23:21:57.185Z,102501.68
2019-04-25T23:24:25.063Z,102504.42
2019-04-25T23:26:53.041Z,102505.78
2019-04-25T23:29:18.953Z,102504.94
2019-04-25T23:31:44.841Z,102507.67
2019-04-25T23:34:11.152Z,102505.53
2019-04-25T23:36:37.058Z,102506.91
2019-04-25T23:39:05.153Z,102504.36
2019-04-25T23:41:32.327Z,102497.89
2019-04-25T23:43:58.258Z,102497.56
2019-04-25T23:46:24.744Z,102495.45
2019-04-25T23:48:50.640Z,102497.34
2019-04-25T23:51:17.443Z,102494.75
2019-04-25T23:53:43.808Z,102497.08
2019-04-25T23:56:09.894Z,102489.66
2019-04-25T23:58:36.874Z,102489.69
